OEBA/ABT METAR and TAF weather

Enter ICAO airport designator
Station Type Date Time Source
OEBA METAR 2020/01/26 00:00 UTC NOAA

OEBA 260000Z 04008KT CAVOK 08/M05 Q1025 NOSIG


Station Type Date Time Source
OEBA Decoded METAR 2020/01/26 00:00 UTC NOAA

Al Baha, Saudi Arabia (OEBA) 20-18N 041-38E 1662M
Jan 25, 2020 - 07:00 PM EST / 2020.01.26 0000 UTC
Wind: from the NE (040 degrees) at 9 MPH (8 KT):0
Visibility: greater than 7 mile(s):0
Temperature: 46 F (8 C)
Dew Point: 23 F (-5 C)
Relative Humidity: 39%
Pressure (altimeter): 30.27 in. Hg (1025 hPa)
ob: OEBA 260000Z 04008KT CAVOK 08/M05 Q1025 NOSIG
cycle: 0

Station Type Date Time Source
OEBA TAF 2020/01/25 12:03 UTC NOAA

TAF OEBA 251100Z 2512/2618 24014KT 8000 FEW030
BECMG 2518/2520 33010KT
BECMG 2606/2608 09010KT

Example: see airport list